createdAt,value
2023-09-24T00:00:14.662Z,18.36
2023-09-24T00:02:41.598Z,18.35
2023-09-24T00:05:12.969Z,18.34
2023-09-24T00:07:39.702Z,18.34
2023-09-24T00:10:09.752Z,18.34
2023-09-24T00:12:36.846Z,18.34
2023-09-24T00:15:03.999Z,18.33
2023-09-24T00:17:33.705Z,18.33
2023-09-24T00:20:00.534Z,18.33
2023-09-24T00:22:32.482Z,18.33
2023-09-24T00:24:59.725Z,18.33
2023-09-24T00:27:28.522Z,18.32
2023-09-24T00:29:55.134Z,18.32
2023-09-24T00:32:21.849Z,18.31
2023-09-24T00:34:48.490Z,18.31
2023-09-24T00:37:15.120Z,18.31
2023-09-24T00:39:41.734Z,18.30
2023-09-24T00:42:10.748Z,18.29
2023-09-24T00:44:39.858Z,18.29
2023-09-24T00:47:11.055Z,18.29
2023-09-24T00:49:37.767Z,18.28
2023-09-24T00:52:04.719Z,18.27
2023-09-24T00:54:32.407Z,18.28
2023-09-24T00:57:02.297Z,18.26
2023-09-24T00:59:32.164Z,18.26
2023-09-24T01:01:59.740Z,18.25
2023-09-24T01:04:29.090Z,18.26
2023-09-24T01:06:59.059Z,18.26
2023-09-24T01:09:30.590Z,18.27
2023-09-24T01:12:04.432Z,18.27
2023-09-24T01:14:31.174Z,18.28
2023-09-24T01:17:01.309Z,18.27
2023-09-24T01:19:29.140Z,18.27
2023-09-24T01:22:01.682Z,18.25
2023-09-24T01:24:32.195Z,18.24
2023-09-24T01:27:03.806Z,18.22
2023-09-24T01:29:30.552Z,18.21
2023-09-24T01:32:01.983Z,18.19
2023-09-24T01:34:28.781Z,18.19
2023-09-24T01:36:55.484Z,18.17
2023-09-24T01:39:32.470Z,18.16
2023-09-24T01:41:59.258Z,18.16
2023-09-24T01:44:29.410Z,18.17
2023-09-24T01:46:57.005Z,18.17
2023-09-24T01:49:23.671Z,18.16
2023-09-24T01:51:50.445Z,18.15
2023-09-24T01:54:21.021Z,18.13
2023-09-24T01:56:55.521Z,18.13
2023-09-24T01:59:25.247Z,18.13
2023-09-24T02:01:53.562Z,18.12
2023-09-24T02:04:20.187Z,18.12
2023-09-24T02:06:49.765Z,18.12
2023-09-24T02:09:17.690Z,18.12
2023-09-24T02:11:47.231Z,18.11
2023-09-24T02:14:13.851Z,18.11
2023-09-24T02:16:44.242Z,18.11
2023-09-24T02:19:15.582Z,18.09
2023-09-24T02:21:46.895Z,18.10
2023-09-24T02:24:15.840Z,18.07
2023-09-24T02:26:45.930Z,18.07
2023-09-24T02:29:20.179Z,18.06
2023-09-24T02:31:46.979Z,18.07
2023-09-24T02:34:13.649Z,18.06
2023-09-24T02:36:42.521Z,18.05
2023-09-24T02:39:09.163Z,18.06
2023-09-24T02:41:38.161Z,18.04
2023-09-24T02:44:05.140Z,18.05
2023-09-24T02:46:31.802Z,18.04
2023-09-24T02:48:58.447Z,18.06
2023-09-24T02:51:25.060Z,18.06
2023-09-24T02:53:54.015Z,18.05
2023-09-24T02:56:20.690Z,18.05
2023-09-24T02:58:47.336Z,18.06
2023-09-24T03:01:17.423Z,18.06
2023-09-24T03:03:44.213Z,18.08
2023-09-24T03:06:11.020Z,18.08
2023-09-24T03:08:37.751Z,18.09
2023-09-24T03:11:15.426Z,18.09
2023-09-24T03:13:42.732Z,18.09
2023-09-24T03:16:10.207Z,18.09
2023-09-24T03:18:37.053Z,18.09
2023-09-24T03:21:07.601Z,18.09
2023-09-24T03:23:37.870Z,18.09
2023-09-24T03:26:07.681Z,18.10
2023-09-24T03:28:34.283Z,18.10
2023-09-24T03:31:01.032Z,18.10
2023-09-24T03:33:29.372Z,18.10
2023-09-24T03:35:58.376Z,18.12
2023-09-24T03:38:25.079Z,18.11
2023-09-24T03:40:55.240Z,18.12
2023-09-24T03:43:23.981Z,18.11
2023-09-24T03:45:50.633Z,18.11
2023-09-24T03:48:19.638Z,18.12
2023-09-24T03:50:48.561Z,18.11
2023-09-24T03:53:16.790Z,18.11
2023-09-24T03:55:49.251Z,18.11
2023-09-24T03:58:19.138Z,18.13
2023-09-24T04:00:45.955Z,18.11
2023-09-24T04:03:15.112Z,18.11
2023-09-24T04:05:44.170Z,18.12
2023-09-24T04:08:13.060Z,18.11
2023-09-24T04:10:42.590Z,18.11
2023-09-24T04:13:09.341Z,18.11
2023-09-24T04:15:35.949Z,18.12
2023-09-24T04:18:02.982Z,18.11
2023-09-24T04:20:32.713Z,18.10
2023-09-24T04:22:59.377Z,18.11
2023-09-24T04:25:28.035Z,18.12
2023-09-24T04:27:57.508Z,18.11
2023-09-24T04:30:25.699Z,18.11
2023-09-24T04:33:03.752Z,18.11
2023-09-24T04:35:30.510Z,18.11
2023-09-24T04:37:57.156Z,18.11
2023-09-24T04:40:24.411Z,18.11
2023-09-24T04:42:52.421Z,18.10
2023-09-24T04:45:20.161Z,18.11
2023-09-24T04:47:50.139Z,18.11
2023-09-24T04:50:17.405Z,18.10
2023-09-24T04:52:46.834Z,18.10
2023-09-24T04:55:16.089Z,18.10
2023-09-24T04:57:45.762Z,18.10
2023-09-24T05:00:14.490Z,18.11
2023-09-24T05:02:41.254Z,18.10
2023-09-24T05:05:08.487Z,18.12
2023-09-24T05:07:35.249Z,18.11
2023-09-24T05:10:01.868Z,18.13
2023-09-24T05:12:33.236Z,18.13
2023-09-24T05:14:59.917Z,18.13
2023-09-24T05:17:26.661Z,18.12
2023-09-24T05:19:53.370Z,18.11
2023-09-24T05:22:20.100Z,18.12
2023-09-24T05:24:48.946Z,18.12
2023-09-24T05:27:20.616Z,18.13
2023-09-24T05:29:48.119Z,18.12
2023-09-24T05:32:17.004Z,18.12
2023-09-24T05:34:45.878Z,18.13
2023-09-24T05:37:12.529Z,18.13
2023-09-24T05:39:39.159Z,18.12
2023-09-24T05:42:06.301Z,18.13
2023-09-24T05:44:35.513Z,18.13
2023-09-24T05:47:08.130Z,18.14
2023-09-24T05:49:37.052Z,18.13
2023-09-24T05:52:06.061Z,18.14
2023-09-24T05:54:34.957Z,18.16
2023-09-24T05:57:02.991Z,18.14
2023-09-24T05:59:29.734Z,18.14
2023-09-24T06:01:56.434Z,18.16
2023-09-24T06:04:23.364Z,18.15
2023-09-24T06:06:57.402Z,18.17
2023-09-24T06:09:29.511Z,18.17
2023-09-24T06:11:58.628Z,18.16
2023-09-24T06:14:25.360Z,18.17
2023-09-24T06:16:52.059Z,18.17
2023-09-24T06:19:18.805Z,18.19
2023-09-24T06:21:45.455Z,18.21
2023-09-24T06:24:14.728Z,18.21
2023-09-24T06:26:42.065Z,18.21
2023-09-24T06:29:12.170Z,18.23
2023-09-24T06:31:39.877Z,18.27
2023-09-24T06:34:07.182Z,18.29
2023-09-24T06:36:39.248Z,18.28
2023-09-24T06:39:09.899Z,18.28
2023-09-24T06:41:38.690Z,18.33
2023-09-24T06:44:05.540Z,18.36
2023-09-24T06:46:32.242Z,18.35
2023-09-24T06:48:58.933Z,18.36
2023-09-24T06:51:25.644Z,18.37
2023-09-24T06:53:57.261Z,18.37
2023-09-24T06:56:27.024Z,18.39
2023-09-24T06:58:53.871Z,18.40
2023-09-24T07:01:23.487Z,18.41
2023-09-24T07:03:50.707Z,18.42
2023-09-24T07:06:18.769Z,18.43
2023-09-24T07:08:47.714Z,18.43
2023-09-24T07:11:29.130Z,18.41
2023-09-24T07:13:56.587Z,18.43
2023-09-24T07:16:28.778Z,18.44
2023-09-24T07:18:56.125Z,18.47
2023-09-24T07:21:34.530Z,18.46
2023-09-24T07:24:05.610Z,18.45
2023-09-24T07:26:32.962Z,18.44
2023-09-24T07:29:01.375Z,18.43
2023-09-24T07:31:30.539Z,18.42
2023-09-24T07:33:59.618Z,18.43
2023-09-24T07:38:59.151Z,18.44
2023-09-24T07:41:25.817Z,18.43
2023-09-24T07:43:52.516Z,18.42
2023-09-24T07:46:20.794Z,18.44
2023-09-24T07:48:49.113Z,18.44
2023-09-24T07:51:19.586Z,18.50
2023-09-24T07:53:47.913Z,18.54
2023-09-24T07:56:17.561Z,18.60
2023-09-24T07:58:44.301Z,18.63
2023-09-24T08:01:20.186Z,18.64
2023-09-24T08:03:50.489Z,18.65
2023-09-24T08:06:19.692Z,18.66
2023-09-24T08:08:53.190Z,18.70
2023-09-24T08:11:24.830Z,18.72
2023-09-24T08:13:54.215Z,18.76
2023-09-24T08:16:26.505Z,18.78
2023-09-24T08:18:53.321Z,18.79
2023-09-24T08:21:20.693Z,18.80
2023-09-24T08:23:48.167Z,18.82
2023-09-24T08:26:17.593Z,18.86
2023-09-24T08:28:44.801Z,18.92
2023-09-24T08:31:12.273Z,19.00
2023-09-24T08:33:39.226Z,19.06
2023-09-24T08:36:10.411Z,19.10
2023-09-24T08:38:39.642Z,19.13
2023-09-24T08:41:13.368Z,19.14
2023-09-24T08:43:45.881Z,19.14
2023-09-24T08:46:15.225Z,19.14
2023-09-24T08:48:42.391Z,19.14
2023-09-24T08:51:10.940Z,19.23
2023-09-24T08:53:41.952Z,19.32
2023-09-24T08:56:12.131Z,19.39
2023-09-24T08:58:40.110Z,19.42
2023-09-24T09:01:10.853Z,19.45
2023-09-24T09:03:38.266Z,19.49
2023-09-24T09:06:05.272Z,19.50
2023-09-24T09:08:58.175Z,19.52
2023-09-24T09:11:40.285Z,19.54
2023-09-24T09:14:07.491Z,19.58
2023-09-24T09:16:35.076Z,19.58
2023-09-24T09:19:02.999Z,19.57
2023-09-24T09:21:31.006Z,19.59
2023-09-24T09:24:02.757Z,19.62
2023-09-24T09:26:34.774Z,19.62
2023-09-24T09:29:05.316Z,19.63
2023-09-24T09:31:32.134Z,19.66
2023-09-24T09:34:07.931Z,19.71
2023-09-24T09:36:35.928Z,19.78
2023-09-24T09:39:04.350Z,19.83
2023-09-24T09:41:34.506Z,19.87
2023-09-24T09:44:08.747Z,19.91
2023-09-24T09:46:36.603Z,19.97
2023-09-24T09:49:08.982Z,20.00
2023-09-24T09:51:53.735Z,20.11
2023-09-24T09:54:22.716Z,20.16
2023-09-24T09:56:50.283Z,20.18
2023-09-24T09:59:17.892Z,20.19
2023-09-24T10:01:44.750Z,20.31
2023-09-24T10:04:15.110Z,20.42
2023-09-24T10:06:42.233Z,20.50
2023-09-24T10:09:27.988Z,20.58
2023-09-24T10:12:00.122Z,20.70
2023-09-24T10:14:34.018Z,20.77
2023-09-24T10:17:26.686Z,20.91
2023-09-24T10:20:07.889Z,21.15
2023-09-24T10:22:41.867Z,21.23
2023-09-24T10:25:33.612Z,21.32
2023-09-24T10:28:10.240Z,21.44
2023-09-24T10:31:06.846Z,21.57
2023-09-24T10:33:52.429Z,21.65
2023-09-24T10:36:27.478Z,21.76
2023-09-24T10:39:14.009Z,21.91
2023-09-24T10:42:09.955Z,22.11
2023-09-24T10:44:37.349Z,22.26
2023-09-24T10:47:29.130Z,22.41
2023-09-24T10:50:13.955Z,22.17
2023-09-24T10:52:56.717Z,22.04
2023-09-24T10:55:32.268Z,21.82
2023-09-24T10:58:03.936Z,21.75
2023-09-24T11:00:32.576Z,21.75
2023-09-24T11:03:09.641Z,21.76
2023-09-24T11:05:42.436Z,21.77
2023-09-24T11:08:10.764Z,21.80
2023-09-24T11:10:38.201Z,21.76
2023-09-24T11:13:08.601Z,21.76
2023-09-24T11:15:38.188Z,21.77
2023-09-24T11:18:06.455Z,21.80
2023-09-24T11:20:35.996Z,21.87
2023-09-24T11:23:10.071Z,21.92
2023-09-24T11:25:37.415Z,21.90
2023-09-24T11:28:07.400Z,21.94
2023-09-24T11:30:52.210Z,21.86
2023-09-24T11:33:49.743Z,21.79
2023-09-24T11:36:21.882Z,21.72
2023-09-24T11:38:49.046Z,21.71
2023-09-24T11:41:15.980Z,21.69
2023-09-24T11:43:46.071Z,21.67
2023-09-24T11:46:23.579Z,21.68
2023-09-24T11:48:56.279Z,21.64
2023-09-24T11:51:23.594Z,21.74
2023-09-24T11:53:52.852Z,21.85
2023-09-24T11:56:19.773Z,21.93
2023-09-24T11:58:46.855Z,21.93
2023-09-24T12:01:15.183Z,21.97
2023-09-24T12:03:44.039Z,21.98
2023-09-24T12:10:22.834Z,22.04
2023-09-24T12:12:51.165Z,22.09
2023-09-24T12:15:25.132Z,22.16
2023-09-24T12:17:56.408Z,22.22
2023-09-24T12:20:23.986Z,22.36
2023-09-24T12:22:50.909Z,22.42
2023-09-24T12:25:17.537Z,22.42
2023-09-24T12:27:49.065Z,22.40
2023-09-24T12:30:15.827Z,22.49
2023-09-24T12:32:45.336Z,22.60
2023-09-24T12:35:14.304Z,22.61
2023-09-24T12:37:42.120Z,22.60
2023-09-24T12:40:15.034Z,22.57
2023-09-24T12:42:43.857Z,22.58
2023-09-24T12:45:14.395Z,22.61
2023-09-24T12:47:44.145Z,22.56
2023-09-24T12:50:12.806Z,22.53
2023-09-24T12:52:48.505Z,22.51
2023-09-24T12:55:18.266Z,22.53
2023-09-24T12:57:46.505Z,22.54
2023-09-24T13:00:17.991Z,22.56
2023-09-24T13:02:47.369Z,22.56
2023-09-24T13:05:16.924Z,22.63
2023-09-24T13:07:47.789Z,22.71
2023-09-24T13:10:17.741Z,22.77
2023-09-24T13:12:45.836Z,22.75
2023-09-24T13:15:17.572Z,22.74
2023-09-24T13:17:44.393Z,22.69
2023-09-24T13:20:11.984Z,22.70
2023-09-24T13:22:39.850Z,22.74
2023-09-24T13:25:07.116Z,22.77
2023-09-24T13:27:34.854Z,22.73
2023-09-24T13:30:04.167Z,22.66
2023-09-24T13:32:32.881Z,22.66
2023-09-24T13:35:05.429Z,22.65
2023-09-24T13:37:34.931Z,22.66
2023-09-24T13:40:01.750Z,22.67
2023-09-24T13:42:34.391Z,22.77
2023-09-24T13:45:01.124Z,22.95
2023-09-24T13:47:27.937Z,23.09
2023-09-24T13:49:54.762Z,23.18
2023-09-24T13:52:23.876Z,23.24
2023-09-24T13:54:50.545Z,23.27
2023-09-24T13:57:17.351Z,23.25
2023-09-24T13:59:44.216Z,23.24
2023-09-24T14:02:11.120Z,23.23
2023-09-24T14:04:40.160Z,23.23
2023-09-24T14:07:06.977Z,23.23
2023-09-24T14:09:52.319Z,23.25
2023-09-24T14:12:23.288Z,23.25
2023-09-24T14:14:55.978Z,23.27
2023-09-24T14:17:22.925Z,23.34
2023-09-24T14:19:49.819Z,23.36
2023-09-24T14:22:16.651Z,23.41
2023-09-24T14:24:43.347Z,23.46
2023-09-24T14:27:12.498Z,23.51
2023-09-24T14:29:39.311Z,23.56
2023-09-24T14:32:06.116Z,23.57
2023-09-24T14:34:33.202Z,23.68
2023-09-24T14:36:59.939Z,23.77
2023-09-24T14:39:26.732Z,23.86
2023-09-24T14:41:53.459Z,23.90
2023-09-24T14:44:22.376Z,23.86
2023-09-24T14:46:51.387Z,23.81
2023-09-24T14:49:21.000Z,23.75
2023-09-24T14:51:50.308Z,23.69
2023-09-24T14:54:17.053Z,23.61
2023-09-24T14:56:43.807Z,23.54
2023-09-24T14:59:11.224Z,23.44
2023-09-24T15:01:40.759Z,23.37
2023-09-24T15:04:09.913Z,23.30
2023-09-24T15:06:36.718Z,23.24
2023-09-24T15:09:06.555Z,23.18
2023-09-24T15:11:34.718Z,23.17
2023-09-24T15:14:01.498Z,23.15
2023-09-24T15:16:30.739Z,23.13
2023-09-24T15:19:02.149Z,23.10
2023-09-24T15:21:28.907Z,23.07
2023-09-24T15:23:55.794Z,23.05
2023-09-24T15:26:22.473Z,23.02
2023-09-24T15:28:51.992Z,22.99
2023-09-24T15:31:20.151Z,22.95
2023-09-24T15:33:47.085Z,22.94
2023-09-24T15:36:17.241Z,22.94
2023-09-24T15:38:43.936Z,22.94
2023-09-24T15:41:10.596Z,22.94
2023-09-24T15:43:39.678Z,22.93
2023-09-24T15:46:13.216Z,22.91
2023-09-24T15:48:39.988Z,22.89
2023-09-24T15:51:09.076Z,22.87
2023-09-24T15:53:35.827Z,22.83
2023-09-24T15:56:02.583Z,22.81
2023-09-24T15:58:29.252Z,22.76
2023-09-24T16:00:55.925Z,22.76
2023-09-24T16:03:22.716Z,22.77
2023-09-24T16:05:51.772Z,22.79
2023-09-24T16:08:21.112Z,22.80
2023-09-24T16:10:50.539Z,22.80
2023-09-24T16:13:17.297Z,22.81
2023-09-24T16:15:48.317Z,22.83
2023-09-24T16:18:15.380Z,22.84
2023-09-24T16:20:47.021Z,22.83
2023-09-24T16:23:13.760Z,22.82
2023-09-24T16:25:40.378Z,22.81
2023-09-24T16:28:07.044Z,22.81
2023-09-24T16:30:33.935Z,22.82
2023-09-24T16:33:00.724Z,22.85
2023-09-24T16:35:29.464Z,22.90
2023-09-24T16:37:56.124Z,23.00
2023-09-24T16:40:24.953Z,23.09
2023-09-24T16:42:55.567Z,23.17
2023-09-24T16:45:22.477Z,23.20
2023-09-24T16:47:49.315Z,23.21
2023-09-24T16:50:18.490Z,23.18
2023-09-24T16:52:45.118Z,23.13
2023-09-24T16:55:14.534Z,23.09
2023-09-24T16:57:41.226Z,23.04
2023-09-24T17:00:12.077Z,23.00
2023-09-24T17:02:38.992Z,22.94
2023-09-24T17:05:06.281Z,22.91
2023-09-24T17:07:32.950Z,22.88
2023-09-24T17:10:04.240Z,22.86
2023-09-24T17:12:33.561Z,22.83
2023-09-24T17:15:00.433Z,22.75
2023-09-24T17:17:37.019Z,22.66
2023-09-24T17:20:05.565Z,22.58
2023-09-24T17:22:32.417Z,22.50
2023-09-24T17:25:02.494Z,22.44
2023-09-24T17:27:31.461Z,22.42
2023-09-24T17:29:58.370Z,22.38
2023-09-24T17:34:51.945Z,22.27
2023-09-24T17:37:18.572Z,22.19
2023-09-24T17:39:45.201Z,22.15
2023-09-24T17:42:11.883Z,22.11
2023-09-24T17:44:38.539Z,22.08
2023-09-24T17:47:05.287Z,22.04
2023-09-24T17:49:31.934Z,22.01
2023-09-24T17:52:01.542Z,21.96
2023-09-24T17:54:28.395Z,21.94
2023-09-24T17:56:57.289Z,21.92
2023-09-24T17:59:24.066Z,21.89
2023-09-24T18:01:52.816Z,21.86
2023-09-24T18:04:19.634Z,21.85
2023-09-24T18:06:46.570Z,21.80
2023-09-24T18:09:15.552Z,21.78
2023-09-24T18:11:44.418Z,21.73
2023-09-24T18:14:11.070Z,21.71
2023-09-24T18:16:40.021Z,21.69
2023-09-24T18:19:08.904Z,21.66
2023-09-24T18:21:38.115Z,21.65
2023-09-24T18:24:05.128Z,21.64
2023-09-24T18:26:31.825Z,21.60
2023-09-24T18:28:58.745Z,21.59
2023-09-24T18:31:25.514Z,21.57
2023-09-24T18:33:52.438Z,21.52
2023-09-24T18:36:19.297Z,21.48
2023-09-24T18:38:46.058Z,21.48
2023-09-24T18:41:14.127Z,21.50
2023-09-24T18:43:43.111Z,21.50
2023-09-24T18:46:09.811Z,21.49
2023-09-24T18:48:37.425Z,21.49
2023-09-24T18:51:17.241Z,21.48
2023-09-24T18:53:43.914Z,21.47
2023-09-24T18:56:10.556Z,21.46
2023-09-24T18:58:37.379Z,21.42
2023-09-24T19:01:08.504Z,21.37
2023-09-24T19:06:13.344Z,21.28
2023-09-24T19:08:40.137Z,21.23
2023-09-24T19:11:11.060Z,21.19
2023-09-24T19:13:37.760Z,21.16
2023-09-24T19:16:06.531Z,21.13
2023-09-24T19:18:34.406Z,21.11
2023-09-24T19:21:03.787Z,21.09
2023-09-24T19:23:32.317Z,21.04
2023-09-24T19:26:10.038Z,21.02
2023-09-24T19:28:36.918Z,21.01
2023-09-24T19:31:10.804Z,20.98
2023-09-24T19:33:40.457Z,20.96
2023-09-24T19:36:08.748Z,20.93
2023-09-24T19:38:36.213Z,20.91
2023-09-24T19:41:06.564Z,20.90
2023-09-24T19:43:35.649Z,20.88
2023-09-24T19:46:03.283Z,20.86
2023-09-24T19:48:33.011Z,20.85
2023-09-24T19:51:00.358Z,20.84
2023-09-24T19:53:27.312Z,20.83
2023-09-24T19:55:56.551Z,20.83
2023-09-24T19:58:26.857Z,20.81
2023-09-24T20:00:59.428Z,20.78
2023-09-24T20:03:26.310Z,20.78
2023-09-24T20:05:54.031Z,20.77
2023-09-24T20:08:24.584Z,20.76
2023-09-24T20:10:51.432Z,20.75
2023-09-24T20:13:18.140Z,20.73
2023-09-24T20:15:44.937Z,20.71
2023-09-24T20:18:11.904Z,20.71
2023-09-24T20:20:38.650Z,20.69
2023-09-24T20:23:05.934Z,20.68
2023-09-24T20:25:41.367Z,20.67
2023-09-24T20:28:08.041Z,20.65
2023-09-24T20:30:34.892Z,20.64
2023-09-24T20:33:10.087Z,20.64
2023-09-24T20:35:46.749Z,20.62
2023-09-24T20:38:15.624Z,20.60
2023-09-24T20:40:43.301Z,20.59
2023-09-24T20:43:13.224Z,20.58
2023-09-24T20:45:56.108Z,20.57
2023-09-24T20:48:22.962Z,20.57
2023-09-24T20:50:49.654Z,20.56
2023-09-24T20:53:16.346Z,20.55
2023-09-24T20:55:43.036Z,20.54
2023-09-24T20:58:12.326Z,20.53
2023-09-24T21:00:42.301Z,20.51
2023-09-24T21:03:10.314Z,20.51
2023-09-24T21:05:37.232Z,20.50
2023-09-24T21:08:05.871Z,20.50
2023-09-24T21:10:32.546Z,20.48
2023-09-24T21:12:59.192Z,20.47
2023-09-24T21:15:30.762Z,20.47
2023-09-24T21:17:57.467Z,20.47
2023-09-24T21:20:24.827Z,20.46
2023-09-24T21:22:51.499Z,20.45
2023-09-24T21:25:18.869Z,20.44
2023-09-24T21:27:48.306Z,20.44
2023-09-24T21:30:15.285Z,20.46
2023-09-24T21:32:42.046Z,20.50
2023-09-24T21:35:09.008Z,20.53
2023-09-24T21:37:35.676Z,20.55
2023-09-24T21:40:04.982Z,20.57
2023-09-24T21:42:31.707Z,20.59
2023-09-24T21:45:01.859Z,20.60
2023-09-24T21:47:30.618Z,20.59
2023-09-24T21:49:57.281Z,20.61
2023-09-24T21:52:24.009Z,20.62
2023-09-24T21:54:54.170Z,20.63
2023-09-24T21:57:26.755Z,20.63
2023-09-24T21:59:53.475Z,20.63
2023-09-24T22:02:22.586Z,20.63
2023-09-24T22:04:50.340Z,20.64
2023-09-24T22:07:17.060Z,20.64
2023-09-24T22:09:43.737Z,20.63
2023-09-24T22:12:10.425Z,20.64
2023-09-24T22:14:37.036Z,20.61
2023-09-24T22:17:04.432Z,20.62
2023-09-24T22:19:31.061Z,20.61
2023-09-24T22:21:59.890Z,20.58
2023-09-24T22:24:29.074Z,20.55
2023-09-24T22:26:56.026Z,20.53
2023-09-24T22:29:22.700Z,20.52
2023-09-24T22:31:52.617Z,20.51
2023-09-24T22:34:22.277Z,20.50
2023-09-24T22:36:53.709Z,20.49
2023-09-24T22:39:20.467Z,20.48
2023-09-24T22:41:51.232Z,20.48
2023-09-24T22:44:20.814Z,20.47
2023-09-24T22:46:47.485Z,20.45
2023-09-24T22:49:14.709Z,20.43
2023-09-24T22:51:41.360Z,20.41
2023-09-24T22:54:08.092Z,20.40
2023-09-24T22:56:34.753Z,20.39
2023-09-24T22:59:01.438Z,20.37
2023-09-24T23:01:31.844Z,20.37
2023-09-24T23:03:58.550Z,20.36
2023-09-24T23:06:25.289Z,20.34
2023-09-24T23:08:52.114Z,20.34
2023-09-24T23:11:21.105Z,20.31
2023-09-24T23:13:50.203Z,20.30
2023-09-24T23:16:16.848Z,20.28
2023-09-24T23:18:43.568Z,20.27
2023-09-24T23:21:13.691Z,20.26
2023-09-24T23:23:40.380Z,20.25
2023-09-24T23:26:09.229Z,20.23
2023-09-24T23:28:35.967Z,20.23
2023-09-24T23:31:05.206Z,20.21
2023-09-24T23:33:31.995Z,20.21
2023-09-24T23:36:00.123Z,20.19
2023-09-24T23:38:29.450Z,20.19
2023-09-24T23:40:56.555Z,20.18
2023-09-24T23:43:23.423Z,20.17
2023-09-24T23:45:52.422Z,20.17
2023-09-24T23:48:19.132Z,20.16
2023-09-24T23:50:45.999Z,20.15
2023-09-24T23:53:15.841Z,20.14
2023-09-24T23:55:42.607Z,20.13
2023-09-24T23:58:09.262Z,20.13
